Time;durP1;ratioP1;P1;durP2;ratioP2;P2;SDS_P1;SDS_P2;PMS_P1;PMS_P2;Temp;Humidity;BMP_temperature;BMP_pressure;BME280_temperature;BME280_humidity;BME280_pressure;Samples;Min_cycle;Max_cycle;Signal;HPM_P1;HPM_P2
2021/06/05 03:31:46;;;;;;;2.80;2.50;;;;;;;21.52;59.97;99122.09;7750041;23;20269;-87
2021/06/05 03:35:08;;;;;;;2.90;2.70;;;;;;;21.26;60.57;99114.84;6920821;28;20214;-87
2021/06/05 03:38:29;;;;;;;6.10;2.80;;;;;;;21.39;60.21;99133.56;6930312;28;20232;-88
2021/06/05 03:41:50;;;;;;;3.67;3.03;;;;;;;21.10;61.36;99107.63;6917017;28;20276;-87
2021/06/05 03:45:12;;;;;;;3.60;3.30;;;;;;;21.22;61.76;99118.41;6940386;23;20189;-85
2021/06/05 03:48:35;;;;;;;5.50;2.97;;;;;;;21.37;61.24;99127.53;6853507;28;20207;-85
2021/06/05 03:51:56;;;;;;;3.37;2.93;;;;;;;21.61;60.57;99110.34;6840933;29;20294;-84
2021/06/05 03:55:17;;;;;;;4.63;2.73;;;;;;;21.69;59.32;99098.91;6841460;28;20227;-84
2021/06/05 03:58:42;;;;;;;3.47;2.30;;;;;;;21.62;59.71;99125.75;6853915;28;20197;-84
2021/06/05 04:02:04;;;;;;;3.63;2.37;;;;;;;21.88;59.66;99132.16;6868389;28;20229;-84
2021/06/05 04:05:27;;;;;;;4.47;2.63;;;;;;;21.96;59.15;99117.94;6868126;28;20236;-84
2021/06/05 04:08:49;;;;;;;2.83;2.40;;;;;;;22.10;59.31;99130.88;6868342;28;20572;-85
2021/06/05 04:12:11;;;;;;;2.40;2.20;;;;;;;22.37;57.79;99131.44;6868571;28;20645;-85
2021/06/05 04:15:33;;;;;;;3.53;2.50;;;;;;;22.38;57.68;99133.13;6868128;28;20746;-86
2021/06/05 04:18:55;;;;;;;2.70;2.50;;;;;;;21.80;59.82;99119.81;6867836;28;20581;-85
2021/06/05 04:22:18;;;;;;;3.83;2.47;;;;;;;21.59;60.38;99130.94;6868604;28;20572;-85
2021/06/05 04:25:39;;;;;;;4.17;2.50;;;;;;;22.06;59.15;99124.25;6869067;28;20222;-85
2021/06/05 04:29:00;;;;;;;5.20;2.13;;;;;;;22.40;57.84;99117.19;6869378;28;20221;-85
2021/06/05 04:32:21;;;;;;;2.33;2.17;;;;;;;22.14;57.43;99109.16;6868085;28;20231;-85
2021/06/05 04:35:43;;;;;;;2.63;2.43;;;;;;;21.66;58.83;99132.31;6868924;28;20229;-86
2021/06/05 04:39:06;;;;;;;2.17;2.03;;;;;;;22.10;58.95;99113.56;6869450;28;20205;-84
2021/06/05 04:42:27;;;;;;;3.00;2.53;;;;;;;22.63;57.92;99130.41;6869565;28;20713;-85
2021/06/05 04:45:49;;;;;;;3.43;2.10;;;;;;;23.15;55.94;99119.91;6869353;28;20247;-85
2021/06/05 04:49:10;;;;;;;2.40;2.20;;;;;;;23.44;55.07;99129.22;6869100;28;20208;-85
2021/06/05 04:52:31;;;;;;;3.03;2.13;;;;;;;22.66;56.99;99127.09;6867033;28;20234;-86
2021/06/05 04:55:54;;;;;;;2.57;2.10;;;;;;;23.39;56.77;99126.50;6868702;28;20712;-83
2021/06/05 04:59:16;;;;;;;3.13;2.03;;;;;;;23.87;54.20;99106.50;6869202;28;20216;-84
2021/06/05 05:02:37;;;;;;;2.47;2.07;;;;;;;23.96;54.05;99098.47;6868996;28;20208;-84
2021/06/05 05:06:01;;;;;;;4.47;2.33;;;;;;;24.05;53.83;99110.50;6863136;28;20244;-84
2021/06/05 05:09:22;;;;;;;2.80;2.60;;;;;;;24.18;53.61;99102.44;6869473;28;20221;-85
2021/06/05 05:12:45;;;;;;;3.03;2.07;;;;;;;23.89;54.29;99086.94;6867899;28;20769;-85
2021/06/05 05:16:06;;;;;;;2.50;1.77;;;;;;;23.73;55.22;99096.34;6868730;28;20720;-84
2021/06/05 05:19:27;;;;;;;3.10;2.10;;;;;;;23.60;55.50;99084.00;6868510;28;20256;-85
2021/06/05 05:22:48;;;;;;;2.20;2.00;;;;;;;23.47;55.88;99106.63;6867048;28;20220;-85
2021/06/05 05:26:11;;;;;;;2.53;2.10;;;;;;;23.40;56.10;99111.63;6867679;28;20234;-85
2021/06/05 05:29:34;;;;;;;2.10;1.90;;;;;;;23.48;55.66;99119.28;6867387;28;20213;-85
2021/06/05 05:32:55;;;;;;;2.47;1.80;;;;;;;23.55;54.96;99114.31;6887839;28;20709;-84
2021/06/05 05:36:22;;;;;;;2.97;2.13;;;;;;;23.16;55.65;99120.72;6888485;28;20586;-84
2021/06/05 05:39:43;;;;;;;2.00;1.80;;;;;;;22.99;55.80;99084.44;6867147;28;20684;-84
2021/06/05 05:43:04;;;;;;;2.93;1.90;;;;;;;23.07;54.29;99122.41;6867982;28;20218;-84
2021/06/05 05:46:28;;;;;;;2.10;1.60;;;;;;;22.96;54.46;99120.78;6867162;28;20299;-84
2021/06/05 05:49:49;;;;;;;1.40;1.40;;;;;;;23.50;52.91;99119.00;6868718;28;20209;-81
2021/06/05 05:53:11;;;;;;;3.20;1.80;;;;;;;23.82;53.46;99125.75;6867422;28;20259;-82
2021/06/05 05:56:34;;;;;;;3.30;1.77;;;;;;;23.94;52.75;99119.94;6868686;28;20231;-84
2021/06/05 05:59:55;;;;;;;2.10;1.80;;;;;;;24.01;52.39;99123.22;6869074;28;20699;-81
2021/06/05 06:03:18;;;;;;;1.80;1.70;;;;;;;24.07;52.15;99139.44;6868111;28;20229;-84
2021/06/05 06:06:39;;;;;;;2.27;1.70;;;;;;;24.09;50.52;99137.22;6868450;28;20236;-83
2021/06/05 06:10:00;;;;;;;4.70;1.80;;;;;;;24.39;51.17;99147.22;6867469;28;20284;-84
2021/06/05 06:13:22;;;;;;;1.60;1.50;;;;;;;24.33;49.24;99148.38;6867020;28;20229;-84
2021/06/05 06:16:43;;;;;;;1.87;1.77;;;;;;;24.01;50.66;99145.25;6868571;28;20597;-84
2021/06/05 06:20:08;;;;;;;2.83;1.57;;;;;;;24.19;50.29;99145.41;6868763;28;20207;-83
2021/06/05 06:23:31;;;;;;;3.47;2.10;;;;;;;24.74;48.62;99152.50;6865640;28;20260;-84
2021/06/05 06:26:52;;;;;;;2.20;1.63;;;;;;;24.57;49.61;99150.16;6866711;28;20230;-84
2021/06/05 06:30:15;;;;;;;2.67;1.67;;;;;;;24.74;47.94;99139.56;6865890;28;20208;-85
2021/06/05 06:33:37;;;;;;;2.10;1.60;;;;;;;24.41;48.16;99153.28;6867065;28;20205;-81
2021/06/05 06:37:05;;;;;;;2.00;1.50;;;;;;;24.80;48.43;99151.38;6867386;28;20724;-82
2021/06/05 06:40:29;;;;;;;1.50;1.30;;;;;;;24.84;48.77;99139.44;6866628;28;20193;-84
2021/06/05 06:43:51;;;;;;;1.83;1.73;;;;;;;25.29;46.81;99152.03;6867829;28;20584;-86
2021/06/05 06:47:12;;;;;;;1.83;1.43;;;;;;;25.25;48.07;99142.69;6867117;28;20240;-83
2021/06/05 06:50:33;;;;;;;2.30;1.70;;;;;;;25.44;46.74;99157.41;6865548;28;20247;-84
2021/06/05 06:53:56;;;;;;;2.87;1.93;;;;;;;25.62;46.15;99175.97;6867567;28;20260;-85
2021/06/05 06:57:17;;;;;;;1.73;1.63;;;;;;;25.76;45.11;99157.56;6866894;28;20281;-84
2021/06/05 07:00:41;;;;;;;1.93;1.37;;;;;;;25.76;45.74;99135.47;6867722;28;20243;-84
2021/06/05 07:04:02;;;;;;;2.67;1.37;;;;;;;25.74;44.78;99165.34;6868138;28;20216;-85
2021/06/05 07:07:23;;;;;;;1.60;1.50;;;;;;;25.37;46.88;99179.81;6866676;28;20234;-86
2021/06/05 07:10:48;;;;;;;3.40;1.70;;;;;;;25.73;46.51;99158.97;6865938;28;20247;-84
2021/06/05 07:14:09;;;;;;;1.67;1.57;;;;;;;26.36;44.09;99168.69;6865458;28;20248;-85
2021/06/05 07:17:30;;;;;;;1.53;1.40;;;;;;;26.61;45.05;99182.16;6865868;28;20239;-85
2021/06/05 07:20:52;;;;;;;1.80;1.57;;;;;;;27.08;43.28;99154.25;6844014;28;20756;-85
2021/06/05 07:24:14;;;;;;;2.63;1.83;;;;;;;27.61;42.80;99176.88;6839892;29;20206;-85
2021/06/05 07:27:36;;;;;;;3.17;1.93;;;;;;;28.12;40.98;99147.81;6839410;29;20729;-85
2021/06/05 07:30:58;;;;;;;1.90;1.70;;;;;;;28.34;41.77;99170.09;6838841;29;20233;-85
2021/06/05 07:34:21;;;;;;;1.57;1.47;;;;;;;28.47;40.74;99171.19;6843815;28;20562;-84
2021/06/05 07:37:42;;;;;;;1.60;1.47;;;;;;;28.28;41.61;99165.78;6848010;29;20726;-81
2021/06/05 07:41:03;;;;;;;1.87;1.70;;;;;;;28.44;40.58;99172.66;6862619;28;20205;-82
2021/06/05 07:44:26;;;;;;;6.60;1.77;;;;;;;28.73;38.82;99161.16;6873920;28;20234;-82
2021/06/05 07:47:48;;;;;;;3.97;1.50;;;;;;;28.60;39.83;99184.22;6873605;28;20237;-84
2021/06/05 07:51:10;;;;;;;3.80;1.93;;;;;;;28.63;38.00;99178.88;6873311;28;20230;-82
2021/06/05 07:54:31;;;;;;;3.77;1.90;;;;;;;28.25;40.15;99151.72;6872344;28;20204;-83
2021/06/05 07:57:52;;;;;;;2.43;1.90;;;;;;;27.73;41.26;99147.50;6870713;28;20234;-85
2021/06/05 08:01:15;;;;;;;3.17;1.90;;;;;;;27.95;42.17;99183.69;6865155;28;20213;-84
2021/06/05 08:04:36;;;;;;;3.97;1.90;;;;;;;27.86;40.90;99168.91;6878311;28;20212;-84
2021/06/05 08:07:57;;;;;;;1.47;1.30;;;;;;;27.97;41.09;99169.50;6870213;28;20221;-86
2021/06/05 08:11:21;;;;;;;2.50;1.60;;;;;;;28.32;41.92;99171.53;6870514;28;20630;-83
2021/06/05 08:14:42;;;;;;;2.20;1.90;;;;;;;28.52;41.64;99176.63;6872102;28;20207;-84
2021/06/05 08:18:06;;;;;;;3.13;1.90;;;;;;;28.21;41.53;99170.09;6878121;28;20245;-85
2021/06/05 08:21:27;;;;;;;2.83;1.80;;;;;;;28.08;43.17;99188.38;6889976;28;20207;-84
2021/06/05 08:24:48;;;;;;;2.90;1.70;;;;;;;27.88;42.59;99163.03;6885237;28;20225;-85
2021/06/05 08:28:09;;;;;;;2.20;2.00;;;;;;;28.05;41.14;99174.31;6870255;28;20229;-85
2021/06/05 08:31:31;;;;;;;2.00;1.90;;;;;;;27.83;41.20;99166.75;6868825;28;20596;-84
2021/06/05 08:34:53;;;;;;;2.10;1.90;;;;;;;27.83;42.33;99152.88;6869876;28;20209;-84
2021/06/05 08:38:17;;;;;;;2.07;1.70;;;;;;;27.77;42.13;99175.44;6868639;28;20209;-84
2021/06/05 08:41:40;;;;;;;1.83;1.60;;;;;;;27.46;43.70;99177.97;6870014;28;20221;-85
2021/06/05 08:45:01;;;;;;;2.37;1.90;;;;;;;27.40;43.84;99184.75;6867765;28;20211;-85
2021/06/05 08:48:23;;;;;;;2.00;1.70;;;;;;;27.09;45.56;99193.84;6869437;28;20208;-84
2021/06/05 08:51:56;;;;;;;6.40;2.27;;;;;;;26.84;45.32;99170.19;6868943;28;20399;-84
2021/06/05 08:55:24;;;;;;;3.43;1.70;;;;;;;26.89;46.04;99181.16;6866533;28;20217;-84
2021/06/05 08:58:48;;;;;;;1.77;1.67;;;;;;;26.88;45.30;99181.47;6870808;28;20560;-84
2021/06/05 09:02:10;;;;;;;3.87;1.70;;;;;;;26.09;47.25;99140.88;6869292;28;20288;-85
2021/06/05 09:05:32;;;;;;;2.73;1.73;;;;;;;26.34;47.26;99175.63;6870987;28;20233;-85
2021/06/05 09:08:55;;;;;;;1.93;1.77;;;;;;;26.79;46.06;99180.50;6871868;28;20213;-84
2021/06/05 09:12:16;;;;;;;3.20;2.17;;;;;;;26.22;47.30;99175.25;6868707;28;20228;-86
2021/06/05 09:15:37;;;;;;;3.10;2.03;;;;;;;26.60;47.10;99190.78;6870035;28;20237;-83
2021/06/05 09:19:02;;;;;;;4.57;2.20;;;;;;;26.16;48.14;99184.72;6870295;28;20224;-85
2021/06/05 09:22:23;;;;;;;3.80;2.03;;;;;;;26.20;45.80;99131.31;6865226;28;20203;-84
2021/06/05 09:25:46;;;;;;;3.03;2.03;;;;;;;26.43;47.02;99191.25;6869528;28;20718;-85
2021/06/05 09:29:11;;;;;;;2.33;2.07;;;;;;;26.61;46.67;99196.00;6869312;28;20214;-84
2021/06/05 09:32:34;;;;;;;2.20;1.83;;;;;;;26.75;46.08;99190.53;6867615;28;20239;-85
2021/06/05 09:36:13;;;;;;;2.27;1.90;;;;;;;26.87;46.00;99180.66;6868119;28;20266;-85
2021/06/05 09:39:39;;;;;;;2.43;1.87;;;;;;;27.17;44.96;99190.41;6868795;28;20252;-84
2021/06/05 09:43:18;;;;;;;4.13;1.90;;;;;;;26.78;45.56;99201.00;6870592;28;20204;-85
2021/06/05 09:46:44;;;;;;;3.17;2.03;;;;;;;27.04;45.77;99207.78;6867608;23;20613;-86
2021/06/05 09:50:23;;;;;;;2.00;1.50;;;;;;;26.76;45.88;99189.41;6875632;28;20578;-86
2021/06/05 09:53:44;;;;;;;3.47;1.60;;;;;;;27.01;45.08;99191.78;6875804;28;20217;-85
2021/06/05 09:57:18;;;;;;;2.87;1.83;;;;;;;26.48;45.59;99199.47;6893873;28;20231;-83
2021/06/05 10:00:42;;;;;;;2.53;2.10;;;;;;;26.66;45.74;99198.69;6893676;28;20663;-82
2021/06/05 10:04:14;;;;;;;3.40;2.20;;;;;;;27.18;45.07;99173.50;6894308;28;20239;-87
2021/06/05 10:07:35;;;;;;;3.20;2.00;;;;;;;27.39;44.17;99196.94;6879772;28;20969;-86
2021/06/05 10:11:03;;;;;;;2.07;1.90;;;;;;;27.48;45.24;99192.34;6876936;28;20697;-84
2021/06/05 10:14:42;;;;;;;2.40;2.20;;;;;;;27.35;44.59;99195.06;6893374;28;20200;-86
2021/06/05 10:18:09;;;;;;;4.83;3.10;;;;;;;27.20;44.83;99198.94;6893910;28;20607;-86
2021/06/05 10:21:34;;;;;;;2.17;1.67;;;;;;;27.34;44.62;99201.75;6893863;28;20248;-86
2021/06/05 10:25:01;;;;;;;3.83;1.93;;;;;;;27.19;45.53;99193.72;6893945;28;20702;-85
2021/06/05 10:28:27;;;;;;;2.10;1.90;;;;;;;26.94;45.16;99185.78;6893211;28;20229;-86
2021/06/05 10:31:49;;;;;;;1.90;1.73;;;;;;;26.65;45.18;99201.78;6893785;28;20213;-86
2021/06/05 10:35:14;;;;;;;5.73;2.10;;;;;;;27.41;44.32;99200.22;6894324;28;20719;-86
2021/06/05 10:38:41;;;;;;;4.03;2.10;;;;;;;27.12;44.97;99194.06;6893030;28;20212;-86
2021/06/05 10:42:05;;;;;;;2.27;2.07;;;;;;;27.37;44.23;99190.88;6891112;28;20657;-86
2021/06/05 10:45:30;;;;;;;2.00;1.77;;;;;;;27.78;43.68;99188.22;6891663;28;20212;-85
2021/06/05 10:48:51;;;;;;;2.13;1.90;;;;;;;27.83;44.18;99190.88;6890326;28;20297;-85
2021/06/05 10:52:25;;;;;;;3.90;1.90;;;;;;;27.45;44.08;99165.25;6892672;28;20909;-86
2021/06/05 10:55:50;;;;;;;2.43;1.93;;;;;;;27.75;45.48;99184.06;6892445;28;20216;-85
2021/06/05 10:59:52;;;;;;;3.80;1.80;;;;;;;28.06;45.62;99176.78;6892853;28;20218;-86
2021/06/05 11:04:01;;;;;;;1.83;1.50;;;;;;;27.85;44.56;99185.84;6887775;28;20256;-84
2021/06/05 11:07:35;;;;;;;2.17;1.70;;;;;;;27.49;45.24;99182.09;6879674;28;20229;-85
2021/06/05 11:11:17;;;;;;;3.17;1.87;;;;;;;27.44;45.63;99135.94;6898810;28;20208;-85
2021/06/05 11:14:42;;;;;;;1.70;1.60;;;;;;;27.83;45.71;99183.38;6900578;28;20204;-85
2021/06/05 11:18:23;;;;;;;2.23;2.03;;;;;;;28.39;44.69;99172.78;6905546;28;20232;-85
2021/06/05 11:21:49;;;;;;;2.60;2.07;;;;;;;27.86;47.23;99166.13;6913502;28;20204;-84
2021/06/05 11:25:33;;;;;;;2.90;1.97;;;;;;;28.46;44.49;99167.63;6880943;28;20209;-85
2021/06/05 11:28:54;;;;;;;2.30;1.80;;;;;;;28.48;43.11;99143.16;6872671;28;20196;-86
2021/06/05 11:32:35;;;;;;;4.83;2.10;;;;;;;28.53;43.36;99156.06;6872105;28;20233;-84
2021/06/05 11:35:59;;;;;;;2.07;1.97;;;;;;;27.79;44.10;99063.16;6873456;28;20232;-84
2021/06/05 11:39:46;;;;;;;1.80;1.70;;;;;;;28.89;43.74;99159.66;6872715;28;20209;-84
2021/06/05 11:43:20;;;;;;;1.67;1.57;;;;;;;29.71;41.98;99155.28;6871611;28;20307;-83
2021/06/05 11:46:52;;;;;;;3.53;1.90;;;;;;;28.98;41.24;99116.97;6871654;28;20260;-84
2021/06/05 11:50:25;;;;;;;2.13;1.87;;;;;;;27.84;43.64;99140.66;6871206;28;20201;-84
2021/06/05 11:53:47;;;;;;;3.53;1.90;;;;;;;27.80;44.71;99153.53;6872197;28;20210;-84
2021/06/05 11:57:12;;;;;;;2.77;1.70;;;;;;;28.38;42.77;99148.91;6886241;28;20236;-84
2021/06/05 12:00:39;;;;;;;2.27;1.80;;;;;;;28.57;43.63;99138.50;6898376;28;20213;-83
2021/06/05 12:04:04;;;;;;;1.90;1.67;;;;;;;28.59;42.75;99138.16;6898968;28;20200;-82
2021/06/05 12:07:28;;;;;;;2.37;2.17;;;;;;;29.89;41.26;99137.53;6887648;28;20230;-84
2021/06/05 12:10:50;;;;;;;3.67;1.93;;;;;;;29.52;40.41;99079.63;6871862;28;20206;-84
2021/06/05 12:14:29;;;;;;;3.73;1.77;;;;;;;29.90;40.73;99109.38;6871648;28;20210;-85
2021/06/05 12:17:57;;;;;;;3.10;1.87;;;;;;;29.60;41.15;99103.91;6872182;28;20229;-85
2021/06/05 12:21:27;;;;;;;1.97;1.57;;;;;;;29.58;39.36;99100.59;6886186;28;20611;-83
2021/06/05 12:24:50;;;;;;;2.77;2.10;;;;;;;29.45;39.51;99107.06;6873044;28;20651;-82
2021/06/05 12:28:13;;;;;;;3.37;1.80;;;;;;;29.98;38.53;99102.22;6887560;28;20235;-84
2021/06/05 12:31:40;;;;;;;3.10;1.47;;;;;;;29.21;39.92;99098.28;6900180;28;20679;-83
2021/06/05 12:35:22;;;;;;;2.90;1.50;;;;;;;29.46;38.56;99100.38;6890492;28;20204;-84
2021/06/05 12:38:46;;;;;;;2.87;1.53;;;;;;;28.97;39.54;99097.84;6870709;28;20205;-84
2021/06/05 12:42:08;;;;;;;1.90;1.53;;;;;;;28.52;39.75;99060.94;6892554;28;20225;-84
2021/06/05 12:45:32;;;;;;;1.60;1.50;;;;;;;28.40;40.99;99088.41;6896875;28;20612;-85
2021/06/05 12:48:55;;;;;;;2.07;1.40;;;;;;;28.21;41.95;99104.38;6897995;28;20189;-83
2021/06/05 12:52:27;;;;;;;2.33;1.40;;;;;;;28.83;42.25;99100.66;6897918;28;20225;-85
2021/06/05 12:55:52;;;;;;;1.40;1.30;;;;;;;28.23;41.66;99106.81;6896899;28;20228;-85
2021/06/05 12:59:16;;;;;;;3.07;1.80;;;;;;;29.09;40.71;99104.47;6896693;28;20211;-85
2021/06/05 13:02:37;;;;;;;1.93;1.60;;;;;;;29.71;40.85;99083.03;6877859;28;20323;-85
2021/06/05 13:06:13;;;;;;;1.63;1.50;;;;;;;29.91;38.61;99080.41;6889735;28;20251;-85
2021/06/05 13:09:38;;;;;;;2.63;1.93;;;;;;;30.24;37.55;99072.50;6898036;28;20195;-84
2021/06/05 13:13:11;;;;;;;1.60;1.50;;;;;;;29.55;36.96;99068.72;6898060;28;20232;-85
2021/06/05 13:16:32;;;;;;;2.40;1.73;;;;;;;30.10;36.91;99092.13;6890832;28;20229;-83
2021/06/05 13:20:05;;;;;;;1.83;1.47;;;;;;;29.67;37.66;99082.81;6869592;28;20204;-85
2021/06/05 13:23:33;;;;;;;2.10;1.67;;;;;;;29.48;39.23;99079.47;6871579;28;20198;-85
2021/06/05 13:27:13;;;;;;;1.53;1.43;;;;;;;29.26;39.82;99073.16;6871524;28;20218;-85
2021/06/05 13:30:36;;;;;;;1.53;1.43;;;;;;;28.67;39.70;99066.06;6870087;28;20269;-84
2021/06/05 13:34:10;;;;;;;1.27;1.27;;;;;;;29.88;38.46;99063.56;6871594;28;20237;-84
2021/06/05 13:37:33;;;;;;;1.30;1.20;;;;;;;30.48;37.65;99073.63;6889444;28;20244;-85
2021/06/05 13:40:56;;;;;;;1.93;1.50;;;;;;;30.33;36.88;99065.78;6897859;28;20221;-85
2021/06/05 13:44:18;;;;;;;2.07;1.10;;;;;;;30.98;36.25;99040.50;6896644;28;20641;-85
2021/06/05 13:47:40;;;;;;;2.00;0.90;;;;;;;30.25;36.68;99058.25;6897649;28;20227;-83
2021/06/05 13:51:01;;;;;;;2.13;0.90;;;;;;;29.07;38.24;99069.81;6897887;28;20286;-85
2021/06/05 13:54:22;;;;;;;1.00;0.93;;;;;;;28.82;38.86;99065.69;6898336;28;20234;-84
2021/06/05 13:57:43;;;;;;;0.77;0.77;;;;;;;29.11;37.38;99026.34;6896763;28;20607;-85
2021/06/05 14:01:07;;;;;;;0.87;0.87;;;;;;;29.69;37.52;99068.59;6896177;28;20261;-84
2021/06/05 14:04:28;;;;;;;0.87;0.87;;;;;;;28.70;39.86;99076.56;6887476;28;20674;-84
2021/06/05 14:07:49;;;;;;;1.33;0.90;;;;;;;28.35;40.52;99062.69;6870263;28;20238;-84
2021/06/05 14:11:16;;;;;;;1.10;1.00;;;;;;;27.86;41.56;99060.81;6851752;28;20201;-85
2021/06/05 14:14:37;;;;;;;0.70;0.70;;;;;;;28.21;40.88;99059.16;6891643;28;20202;-81
2021/06/05 14:18:00;;;;;;;1.97;0.93;;;;;;;29.03;39.85;99050.19;6902713;28;20255;-81
2021/06/05 14:21:21;;;;;;;1.87;1.00;;;;;;;28.75;40.42;99058.94;6881076;28;20218;-83
2021/06/05 14:24:43;;;;;;;1.47;0.90;;;;;;;27.79;42.73;99038.22;6870378;28;20224;-84
2021/06/05 14:28:05;;;;;;;1.00;0.90;;;;;;;27.68;44.20;99042.34;6868585;28;20231;-85
2021/06/05 14:31:27;;;;;;;1.83;0.80;;;;;;;27.85;43.31;99050.03;6868527;28;20276;-83
2021/06/05 14:34:49;;;;;;;1.33;1.10;;;;;;;28.49;42.97;99057.97;6896151;28;20205;-85
2021/06/05 14:38:12;;;;;;;0.70;0.70;;;;;;;27.91;40.07;98969.22;6896723;28;20589;-85
2021/06/05 14:41:33;;;;;;;1.20;1.00;;;;;;;27.36;42.52;99084.00;6895335;28;20208;-86
2021/06/05 14:44:54;;;;;;;1.60;1.30;;;;;;;26.63;45.76;99091.41;6895107;28;20205;-85
2021/06/05 14:48:17;;;;;;;2.10;1.70;;;;;;;26.41;47.53;99109.69;6895883;28;20240;-84
2021/06/05 14:51:39;;;;;;;3.90;2.50;;;;;;;25.93;48.78;99102.69;6895437;28;20250;-83
2021/06/05 14:55:00;;;;;;;2.27;1.60;;;;;;;25.84;49.62;99124.59;6881736;28;20206;-84
2021/06/05 14:58:23;;;;;;;2.43;1.40;;;;;;;25.73;50.23;99117.53;6894319;28;20226;-83
2021/06/05 15:01:44;;;;;;;2.20;1.53;;;;;;;25.76;50.24;99116.13;6887549;28;20345;-84
2021/06/05 15:05:07;;;;;;;1.20;1.10;;;;;;;25.15;50.38;99123.44;6897908;28;20201;-85
2021/06/05 15:08:30;;;;;;;5.40;1.77;;;;;;;24.73;51.49;99092.94;6895895;28;20224;-81
2021/06/05 15:11:51;;;;;;;1.70;1.60;;;;;;;25.20;51.15;99134.44;6895061;28;20231;-84
2021/06/05 15:15:14;;;;;;;1.43;1.10;;;;;;;24.72;52.04;99140.97;6894629;28;20222;-85
2021/06/05 15:18:35;;;;;;;2.67;1.13;;;;;;;24.60;52.03;99151.53;6894110;28;20258;-84
2021/06/05 15:21:57;;;;;;;1.53;1.10;;;;;;;24.78;50.51;99151.63;6894208;28;20275;-85
2021/06/05 15:25:23;;;;;;;1.00;0.90;;;;;;;24.06;52.54;99132.28;6894930;28;20621;-84
2021/06/05 15:28:44;;;;;;;0.80;0.80;;;;;;;23.88;51.85;99096.28;6894203;28;20207;-85
2021/06/05 15:32:06;;;;;;;1.67;1.00;;;;;;;24.91;49.92;99153.75;6893105;28;20225;-84
2021/06/05 15:35:31;;;;;;;0.80;0.80;;;;;;;24.96;50.09;99133.56;6895831;28;20215;-82
2021/06/05 15:38:53;;;;;;;1.00;1.00;;;;;;;25.15;49.75;99156.56;6901500;28;20218;-82
2021/06/05 15:42:15;;;;;;;1.00;1.00;;;;;;;25.05;50.60;99137.34;6905103;28;20218;-84
2021/06/05 15:45:40;;;;;;;1.10;1.10;;;;;;;25.44;49.05;99165.69;6905993;28;20216;-84
2021/06/05 15:49:01;;;;;;;1.80;1.70;;;;;;;25.36;50.12;99169.91;6885171;28;20222;-84
2021/06/05 15:52:22;;;;;;;1.40;1.30;;;;;;;24.50;52.39;99168.94;6892050;28;20590;-82
2021/06/05 15:55:46;;;;;;;2.00;1.30;;;;;;;24.74;51.28;99144.25;6884587;28;20228;-84
2021/06/05 15:59:09;;;;;;;1.00;1.00;;;;;;;24.92;53.54;99152.66;6881946;28;20216;-84
2021/06/05 16:02:30;;;;;;;1.57;1.20;;;;;;;25.07;54.39;99162.72;6880730;28;20201;-84
2021/06/05 16:05:52;;;;;;;2.60;1.37;;;;;;;24.28;55.49;99085.84;6876374;28;20759;-85
2021/06/05 16:09:15;;;;;;;1.50;1.40;;;;;;;24.69;56.50;99155.31;6874759;28;20190;-85
2021/06/05 16:12:36;;;;;;;1.40;1.30;;;;;;;24.71;57.66;99162.19;6874888;28;20233;-85
2021/06/05 16:16:01;;;;;;;1.60;1.50;;;;;;;23.86;57.12;99151.63;6874159;28;20594;-84
2021/06/05 16:19:26;;;;;;;1.60;1.50;;;;;;;23.50;57.21;99078.56;6873809;28;20205;-82
2021/06/05 16:22:47;;;;;;;2.13;1.30;;;;;;;23.27;59.15;99068.19;6877585;28;20205;-84
2021/06/05 16:26:11;;;;;;;2.40;1.80;;;;;;;23.87;58.98;99152.44;6890848;28;20288;-84
2021/06/05 16:29:32;;;;;;;1.80;1.70;;;;;;;23.87;58.51;99125.78;6885458;28;20197;-83
2021/06/05 16:32:55;;;;;;;2.40;1.70;;;;;;;24.22;59.47;99139.34;6875852;28;20235;-84
2021/06/05 16:36:16;;;;;;;1.80;1.70;;;;;;;23.53;59.50;99144.03;6898616;28;20235;-82
2021/06/05 16:39:37;;;;;;;2.63;1.70;;;;;;;23.92;59.52;99131.25;6899739;28;20208;-84
2021/06/05 16:42:59;;;;;;;1.77;1.57;;;;;;;24.42;58.11;99141.97;6900628;28;20211;-83
2021/06/05 16:46:20;;;;;;;1.20;1.20;;;;;;;25.00;57.07;99149.25;6887445;28;20237;-83
2021/06/05 16:49:43;;;;;;;2.93;1.43;;;;;;;24.83;57.71;99142.53;6871454;28;20561;-84
2021/06/05 16:53:05;;;;;;;1.73;1.33;;;;;;;24.92;57.42;99105.75;6876894;28;20238;-84
2021/06/05 16:56:29;;;;;;;1.83;1.40;;;;;;;25.04;56.68;99132.94;6892346;28;20656;-82
2021/06/05 16:59:51;;;;;;;2.73;1.63;;;;;;;24.59;58.58;99095.56;6884033;28;20214;-80
2021/06/05 17:03:13;;;;;;;1.60;1.50;;;;;;;24.65;57.79;99096.34;6899123;28;20738;-82
2021/06/05 17:06:36;;;;;;;2.63;2.13;;;;;;;24.78;57.84;99134.28;6884917;28;20225;-83
2021/06/05 17:09:57;;;;;;;1.60;1.50;;;;;;;24.93;56.39;99132.22;6872271;28;20215;-81
2021/06/05 17:13:21;;;;;;;1.70;1.60;;;;;;;24.43;57.92;99101.44;6869291;28;20231;-82
2021/06/05 17:16:42;;;;;;;1.83;1.73;;;;;;;24.10;59.18;99110.47;6879442;28;20223;-84
2021/06/05 17:20:05;;;;;;;1.90;1.80;;;;;;;23.78;59.22;99099.06;6897843;28;20213;-82
2021/06/05 17:23:31;;;;;;;1.70;1.60;;;;;;;24.22;60.12;99138.50;6899165;28;20226;-84
2021/06/05 17:26:52;;;;;;;1.47;1.43;;;;;;;24.46;59.06;99145.81;6890717;28;20693;-83
2021/06/05 17:30:15;;;;;;;4.00;1.50;;;;;;;24.24;60.03;99139.88;6870914;28;20234;-84
2021/06/05 17:33:38;;;;;;;2.40;1.80;;;;;;;24.16;60.15;99118.44;6872424;28;20653;-83
2021/06/05 17:36:59;;;;;;;2.63;1.90;;;;;;;24.32;59.82;99131.03;6894441;28;20628;-83
2021/06/05 17:40:25;;;;;;;1.63;1.53;;;;;;;24.13;59.94;99120.94;6899444;28;20213;-83
2021/06/05 17:43:46;;;;;;;2.07;1.73;;;;;;;23.98;59.86;99108.09;6899512;28;20267;-84
2021/06/05 17:47:07;;;;;;;1.87;1.70;;;;;;;24.03;59.46;99108.06;6886680;28;20238;-83
2021/06/05 17:50:28;;;;;;;1.90;1.80;;;;;;;24.16;59.72;99132.22;6883464;28;20606;-84
2021/06/05 17:53:53;;;;;;;2.90;1.90;;;;;;;24.29;58.76;99114.22;6873327;28;20225;-83
2021/06/05 17:57:15;;;;;;;3.40;1.80;;;;;;;24.43;59.63;99135.34;6890919;28;20244;-84
2021/06/05 18:00:39;;;;;;;3.07;1.83;;;;;;;24.48;58.96;99140.00;6898415;28;20213;-84
2021/06/05 18:04:04;;;;;;;1.87;1.70;;;;;;;24.13;59.27;99116.25;6896854;28;20207;-83
2021/06/05 18:07:25;;;;;;;1.50;1.40;;;;;;;23.83;58.85;99096.31;6899014;28;20234;-82
2021/06/05 18:10:46;;;;;;;1.50;1.40;;;;;;;23.87;59.41;99125.78;6899830;28;20207;-83
2021/06/05 18:14:12;;;;;;;1.37;1.27;;;;;;;24.14;58.69;99139.94;6881037;28;20699;-83
2021/06/05 18:17:35;;;;;;;1.73;1.23;;;;;;;24.09;59.40;99134.47;6899957;28;20235;-85
2021/06/05 18:20:56;;;;;;;1.23;1.23;;;;;;;24.37;58.57;99124.66;6882832;28;20209;-84
2021/06/05 18:24:19;;;;;;;1.57;1.47;;;;;;;24.30;59.16;99135.19;6878897;28;20230;-82
2021/06/05 18:27:40;;;;;;;2.83;1.73;;;;;;;24.26;58.78;99109.28;6875672;28;20250;-84
2021/06/05 18:31:05;;;;;;;4.23;3.70;;;;;;;24.35;58.01;99091.84;6873185;28;20221;-84
2021/06/05 18:34:26;;;;;;;1.33;1.30;;;;;;;24.73;56.42;99137.88;6875954;28;20222;-82
2021/06/05 18:37:49;;;;;;;1.70;1.60;;;;;;;24.59;57.42;99125.88;6895833;28;20236;-85
2021/06/05 18:41:13;;;;;;;1.20;1.10;;;;;;;24.40;57.39;99127.66;6898632;28;20198;-83
2021/06/05 18:44:35;;;;;;;1.30;1.20;;;;;;;24.22;57.35;99122.81;6897197;28;20226;-82
2021/06/05 18:47:58;;;;;;;1.63;1.53;;;;;;;24.25;58.41;99137.97;6899377;28;20292;-84
2021/06/05 18:51:22;;;;;;;1.33;1.23;;;;;;;24.40;57.70;99151.63;6896462;28;20206;-83
2021/06/05 18:54:45;;;;;;;1.43;1.33;;;;;;;23.41;58.59;99096.75;6896526;28;20232;-83
2021/06/05 18:58:06;;;;;;;1.40;1.30;;;;;;;23.99;59.44;99151.06;6902294;28;20261;-84
2021/06/05 19:01:35;;;;;;;2.40;1.50;;;;;;;24.08;59.66;99145.78;6897472;28;20207;-84
2021/06/05 19:04:58;;;;;;;2.27;1.43;;;;;;;24.27;58.06;99135.72;6883284;28;20208;-83
2021/06/05 19:08:22;;;;;;;3.17;1.70;;;;;;;24.04;59.24;99147.44;6892249;28;20229;-84
2021/06/05 19:11:44;;;;;;;2.00;1.90;;;;;;;24.10;58.61;99122.34;6893333;28;20571;-83
2021/06/05 19:15:06;;;;;;;3.00;1.70;;;;;;;23.84;60.00;99153.03;6894710;28;20244;-84
2021/06/05 19:18:29;;;;;;;2.23;1.43;;;;;;;23.81;60.22;99145.31;6883549;28;20277;-84
2021/06/05 19:21:52;;;;;;;4.70;1.73;;;;;;;23.43;60.06;99157.84;6874780;28;20206;-85
2021/06/05 19:25:17;;;;;;;1.93;1.70;;;;;;;23.54;60.67;99162.22;6893861;28;20668;-84
2021/06/05 19:28:39;;;;;;;1.93;1.67;;;;;;;23.68;60.49;99154.19;6877777;28;20216;-83
2021/06/05 19:32:00;;;;;;;4.20;1.90;;;;;;;23.72;60.41;99178.13;6870251;28;20290;-84